ADDS METAR Data INFO
IDs: Format: Raw Decoded Include TAF

Data at: 1747 UTC 21 Oct 2017

KHSP 211735Z AUTO 16006KT 10SM CLR 18/06 A3041 RMK AO2 T01830063
KHSP 211715Z AUTO 00000KT 10SM CLR 18/06 A3042 RMK AO2 T01830064
KHSP 211655Z AUTO 15003KT 10SM CLR 18/07 A3042 RMK AO2 T01810068
KHSP 211635Z AUTO 16005KT 10SM CLR 18/06 A3042 RMK AO2 T01780055
KHSP 211615Z AUTO 20005KT 10SM CLR 17/06 A3043 RMK AO2 T01720058
KHSP 211555Z AUTO 16004KT 10SM CLR 17/07 A3043 RMK AO2 T01740073
KHSP 211535Z AUTO 00000KT 10SM CLR 17/07 A3042 RMK AO2 T01730073
KHSP 211515Z AUTO 00000KT 10SM CLR 17/07 A3042 RMK AO2 T01670066
KHSP 211455Z AUTO 18008KT 10SM CLR 17/07 A3042 RMK AO2 T01700066
KHSP 211435Z AUTO 16005KT 10SM CLR 17/06 A3042 RMK AO2 T01650064
KHSP 211415Z AUTO 17004KT 10SM CLR 16/07 A3042 RMK AO2 T01600066
KHSP 211355Z AUTO 00000KT 10SM CLR 16/07 A3042 RMK AO2 T01600066
KHSP 211335Z AUTO 00000KT 10SM CLR 16/07 A3042 RMK AO2 T01550067
KHSP 211315Z AUTO 00000KT 10SM CLR 15/06 A3042 RMK AO2 T01520063
KHSP 211255Z AUTO 00000KT 10SM CLR 15/06 A3041 RMK AO2 T01480064
KHSP 211235Z AUTO 00000KT 10SM CLR 14/06 A3041 RMK AO2 T01420062
KHSP 211215Z AUTO 00000KT 10SM CLR 13/06 A3039 RMK AO2 T01340061
KHSP 211155Z AUTO 00000KT 10SM CLR 13/06 A3039 RMK AO2 T01270062 10137 20125
KHSP 211135Z AUTO 00000KT 10SM CLR 13/06 A3038 RMK AO2 T01260062
KHSP 211115Z AUTO 00000KT 10SM CLR 13/06 A3038 RMK AO2 T01260063
KHSP 211055Z AUTO 00000KT 10SM CLR 13/07 A3038 RMK AO2 T01250065
KHSP 211035Z AUTO 00000KT 10SM CLR 13/07 A3037 RMK AO2 T01270065
KHSP 211015Z AUTO 00000KT 10SM CLR 13/06 A3037 RMK AO2 T01280063
KHSP 210955Z AUTO 00000KT 10SM CLR 13/06 A3037 RMK AO2 T01270064
KHSP 210935Z AUTO 00000KT 10SM CLR 13/06 A3036 RMK AO2 T01300063
KHSP 210915Z AUTO 00000KT 10SM CLR 13/07 A3036 RMK AO2 T01300065
KHSP 210855Z AUTO 00000KT 10SM CLR 13/07 A3035 RMK AO2 T01300065
KHSP 210835Z AUTO 00000KT 10SM CLR 13/06 A3035 RMK AO2 T01300063
KHSP 210815Z AUTO 00000KT 10SM CLR 13/07 A3035 RMK AO2 T01300065
KHSP 210755Z AUTO 00000KT 10SM CLR 13/07 A3035 RMK AO2 T01330066
KHSP 210735Z AUTO 00000KT 10SM CLR 14/07 A3035 RMK AO2 T01350065
KHSP 210715Z AUTO 00000KT 10SM CLR 14/07 A3035 RMK AO2 T01350066
KHSP 210655Z AUTO 00000KT 10SM CLR 14/07 A3036 RMK AO2 T01350070
KHSP 210635Z AUTO 00000KT 10SM CLR 14/07 A3036 RMK AO2 T01360068
KHSP 210615Z AUTO 00000KT 10SM CLR 14/07 A3036 RMK AO2 T01350067
KHSP 210555Z AUTO 00000KT 10SM CLR 14/07 A3036 RMK AO2 T01350070 10152 20133
KHSP 210535Z AUTO 00000KT 10SM CLR 13/07 A3035 RMK AO2 T01340070
KHSP 210515Z AUTO 00000KT 10SM CLR 14/07 A3035 RMK AO2 T01360070
KHSP 210455Z AUTO 00000KT 10SM CLR 14/07 A3035 RMK AO2 T01370068 401940104
KHSP 210435Z AUTO 00000KT 10SM CLR 14/07 A3035 RMK AO2 T01380068
KHSP 210415Z AUTO 00000KT 10SM CLR 14/07 A3035 RMK AO2 T01410068
KHSP 210400Z AUTO 00000KT 10SM CLR 15/07 A3036 RMK AO2 T01450068
KHSP 210335Z AUTO 00000KT 10SM CLR 15/07 A3036 RMK AO2 T01450067
KHSP 210315Z AUTO 00000KT 10SM CLR 15/07 A3036 RMK AO2 T01460068
KHSP 210255Z AUTO 00000KT 10SM CLR 15/07 A3035 RMK AO2 T01460066
KHSP 210235Z AUTO 00000KT 10SM CLR 15/07 A3035 RMK AO2 T01480067
KHSP 210220Z AUTO 00000KT 10SM CLR 15/07 A3035 RMK AO2 T01450068
KHSP 210155Z AUTO 00000KT 10SM CLR 15/07 A3035 RMK AO2 T01450069
KHSP 210135Z AUTO 00000KT 10SM CLR 15/07 A3033 RMK AO2 T01460071
KHSP 210115Z AUTO 00000KT 10SM CLR 15/07 A3033 RMK AO2 T01470071
KHSP 210055Z AUTO 00000KT 10SM CLR 15/07 A3033 RMK AO2 T01480071
KHSP 210035Z AUTO 00000KT 10SM CLR 15/07 A3033 RMK AO2 T01520068
KHSP 210015Z AUTO 00000KT 10SM CLR 15/07 A3033 RMK AO2 T01510069
KHSP 202355Z AUTO 00000KT 10SM CLR 15/07 A3032 RMK AO2 T01500070 10194 20147
KHSP 202335Z AUTO 00000KT 10SM CLR 15/07 A3032 RMK AO2 T01480071
KHSP 202315Z AUTO 00000KT 10SM CLR 16/07 A3031 RMK AO2 T01550065
KHSP 202255Z AUTO 00000KT 10SM CLR 16/07 A3031 RMK AO2 T01550070
KHSP 202235Z AUTO 00000KT 10SM CLR 16/08 A3031 RMK AO2 T01620076
KHSP 202215Z AUTO 00000KT 10SM CLR 17/08 A3031 RMK AO2 T01650075
KHSP 202155Z AUTO 00000KT 10SM CLR 17/08 A3030 RMK AO2 T01700075
KHSP 202135Z AUTO 00000KT 10SM CLR 18/07 A3030 RMK AO2 T01810073
KHSP 202115Z AUTO 00000KT 10SM CLR 19/04 A3030 RMK AO2 T01900041
KHSP 202055Z AUTO 00000KT 10SM CLR 19/05 A3031 RMK AO2 T01910050
KHSP 202035Z AUTO 00000KT 10SM CLR 19/05 A3031 RMK AO2 T01920047
KHSP 202015Z AUTO 00000KT 10SM CLR 19/05 A3030 RMK AO2 T01920049
KHSP 201955Z AUTO 00000KT 10SM CLR 19/05 A3031 RMK AO2 T01910051
KHSP 201935Z AUTO 00000KT 10SM CLR 19/06 A3031 RMK AO2 T01890058
KHSP 201915Z AUTO 00000KT 10SM CLR 19/06 A3031 RMK AO2 T01850064
KHSP 201855Z AUTO 31004KT 10SM CLR 18/06 A3031 RMK AO2 T01820063
KHSP 201835Z AUTO 00000KT 10SM CLR 18/07 A3032 RMK AO2 T01810068
KHSP 201815Z AUTO 00000KT 10SM CLR 18/07 A3032 RMK AO2 T01790071
KHSP 201755Z AUTO 28006KT 10SM CLR 18/08 A3033 RMK AO2 T01760075 10176 20105
KHSP 201735Z AUTO 00000KT 10SM CLR 17/07 A3033 RMK AO2 T01700073
KHSP 201715Z AUTO 00000KT 10SM CLR 17/07 A3035 RMK AO2 T01650073
KHSP 201655Z AUTO 00000KT 10SM CLR 16/07 A3035 RMK AO2 T01610072
KHSP 201635Z AUTO 00000KT 10SM CLR 16/07 A3036 RMK AO2 T01560073
KHSP 201615Z AUTO 32004KT 10SM CLR 15/07 A3037 RMK AO2 T01540073
KHSP 201555Z AUTO 00000KT 10SM CLR 15/07 A3037 RMK AO2 T01500073
KHSP 201535Z AUTO 00000KT 10SM CLR 14/07 A3037 RMK AO2 T01430070
KHSP 201515Z AUTO 00000KT 10SM CLR 14/07 A3037 RMK AO2 T01430073
KHSP 201455Z AUTO 34005KT 10SM CLR 14/07 A3037 RMK AO2 T01400071
KHSP 201435Z AUTO 00000KT 10SM CLR 13/07 A3037 RMK AO2 T01330070
KHSP 201415Z AUTO 31006KT 10SM CLR 13/07 A3037 RMK AO2 T01300067
KHSP 201355Z AUTO 32007KT 10SM CLR 13/07 A3037 RMK AO2 T01250066
KHSP 201335Z AUTO 31009KT 10SM CLR 12/06 A3036 RMK AO2 T01210064
KHSP 201315Z AUTO 32008G14KT 10SM CLR 12/06 A3036 RMK AO2 T01180061
KHSP 201255Z AUTO 31010KT 10SM CLR 11/06 A3035 RMK AO2 T01130059
KHSP 201235Z AUTO 31010KT 10SM CLR 11/06 A3033 RMK AO2 T01100055
KHSP 201215Z AUTO 31006G15KT 10SM CLR 11/05 A3033 RMK AO2 T01060050
KHSP 201155Z AUTO 30009KT 10SM CLR 11/05 A3032 RMK AO2 T01050047 10115 20104
KHSP 201135Z AUTO 30010KT 10SM CLR 10/05 A3031 RMK AO2 T01040047
KHSP 201115Z AUTO 30010KT 10SM CLR 11/05 A3031 RMK AO2 T01050047
KHSP 201055Z AUTO 30009KT 10SM CLR 11/05 A3031 RMK AO2 T01050046
KHSP 201035Z AUTO 30011KT 10SM CLR 11/05 A3031 RMK AO2 T01060045
KHSP 201015Z AUTO 30012KT 10SM CLR 11/04 A3031 RMK AO2 T01070044
KHSP 200955Z AUTO 30012KT 10SM CLR 11/04 A3030 RMK AO2 T01070042
KHSP 200935Z AUTO 30011KT 10SM CLR 11/04 A3030 RMK AO2 T01060040
KHSP 200915Z AUTO 30010G15KT 10SM CLR 11/04 A3029 RMK AO2 T01050040
KHSP 200855Z AUTO 29008KT 10SM CLR 11/04 A3029 RMK AO2 T01050037
KHSP 200835Z AUTO 30006KT 10SM CLR 11/04 A3029 RMK AO2 T01080036
KHSP 200815Z AUTO 30010KT 10SM CLR 11/04 A3029 RMK AO2 T01100035
KHSP 200755Z AUTO 29012KT 10SM CLR 11/03 A3029 RMK AO2 T01100034
KHSP 200735Z AUTO 29011KT 10SM CLR 11/03 A3029 RMK AO2 T01110033
KHSP 200715Z AUTO 29010KT 10SM CLR 11/03 A3029 RMK AO2 T01100032
KHSP 200655Z AUTO 29012KT 10SM CLR 11/03 A3029 RMK AO2 T01100031
KHSP 200635Z AUTO 28012KT 10SM CLR 11/03 A3029 RMK AO2 T01110028
KHSP 200615Z AUTO 28011KT 10SM CLR 11/03 A3029 RMK AO2 T01130026
KHSP 200555Z AUTO 28010KT 10SM CLR 11/03 A3029 RMK AO2 T01120025 10150 20112